sensor_id;sensor_type;location;lat;lon;timestamp;pressure;altitude;pressure_sealevel;temperature;humidity
58245;BME280;44550;43.864;25.986;2023-04-24T00:01:36;100895.22;;;12.48;68.37
58245;BME280;44550;43.864;25.986;2023-04-24T00:05:36;100888.25;;;12.56;68.43
58245;BME280;44550;43.864;25.986;2023-04-24T00:09:38;100884.75;;;12.57;68.14
58245;BME280;44550;43.864;25.986;2023-04-24T00:13:44;100889.09;;;12.31;69.22
58245;BME280;44550;43.864;25.986;2023-04-24T00:17:45;100889.91;;;12.02;70.31
58245;BME280;44550;43.864;25.986;2023-04-24T00:21:45;100878.59;;;12.23;69.73
58245;BME280;44550;43.864;25.986;2023-04-24T00:25:50;100881.22;;;12.31;69.10
58245;BME280;44550;43.864;25.986;2023-04-24T00:29:58;100872.53;;;12.59;67.33
58245;BME280;44550;43.864;25.986;2023-04-24T00:34:00;100879.50;;;12.50;67.35
58245;BME280;44550;43.864;25.986;2023-04-24T00:38:04;100872.50;;;12.41;67.59
58245;BME280;44550;43.864;25.986;2023-04-24T00:42:08;100869.88;;;12.39;68.12
58245;BME280;44550;43.864;25.986;2023-04-24T00:46:11;100862.03;;;12.42;67.29
58245;BME280;44550;43.864;25.986;2023-04-24T00:50:20;100859.41;;;12.49;67.02
58245;BME280;44550;43.864;25.986;2023-04-24T00:54:21;100861.16;;;12.73;66.29
58245;BME280;44550;43.864;25.986;2023-04-24T00:58:21;100856.78;;;12.91;65.31
58245;BME280;44550;43.864;25.986;2023-04-24T01:02:24;100850.59;;;13.14;64.39
58245;BME280;44550;43.864;25.986;2023-04-24T01:06:29;100851.47;;;13.39;63.15
58245;BME280;44550;43.864;25.986;2023-04-24T01:10:30;100844.47;;;13.13;63.70
58245;BME280;44550;43.864;25.986;2023-04-24T01:14:32;100845.38;;;13.12;63.75
58245;BME280;44550;43.864;25.986;2023-04-24T01:18:39;100844.50;;;13.09;63.20
58245;BME280;44550;43.864;25.986;2023-04-24T01:22:43;100838.41;;;12.99;63.87
58245;BME280;44550;43.864;25.986;2023-04-24T01:26:46;100838.34;;;13.36;62.80
58245;BME280;44550;43.864;25.986;2023-04-24T01:30:57;100831.31;;;13.39;62.29
58245;BME280;44550;43.864;25.986;2023-04-24T01:35:01;100831.28;;;13.50;61.54
58245;BME280;44550;43.864;25.986;2023-04-24T01:39:05;100825.97;;;13.66;60.81
58245;BME280;44550;43.864;25.986;2023-04-24T01:43:06;100819.00;;;13.58;60.61
58245;BME280;44550;43.864;25.986;2023-04-24T01:47:07;100826.84;;;13.63;60.25
58245;BME280;44550;43.864;25.986;2023-04-24T01:51:07;100812.94;;;13.36;60.92
58245;BME280;44550;43.864;25.986;2023-04-24T01:55:10;100809.53;;;12.87;62.27
58245;BME280;44550;43.864;25.986;2023-04-24T01:59:11;100811.31;;;12.40;64.13
58245;BME280;44550;43.864;25.986;2023-04-24T02:03:11;100799.09;;;12.45;64.17
58245;BME280;44550;43.864;25.986;2023-04-24T02:07:27;100794.69;;;12.75;63.42
58245;BME280;44550;43.864;25.986;2023-04-24T02:11:41;100806.91;;;12.93;62.63
58245;BME280;44550;43.864;25.986;2023-04-24T02:15:44;100803.44;;;12.39;63.99
58245;BME280;44550;43.864;25.986;2023-04-24T02:19:46;100789.47;;;12.26;65.05
58245;BME280;44550;43.864;25.986;2023-04-24T02:23:46;100788.56;;;12.16;65.34
58245;BME280;44550;43.864;25.986;2023-04-24T02:27:50;100787.69;;;12.13;65.82
58245;BME280;44550;43.864;25.986;2023-04-24T02:31:49;100779.84;;;12.33;65.22
58245;BME280;44550;43.864;25.986;2023-04-24T02:35:54;100785.97;;;12.39;64.62
58245;BME280;44550;43.864;25.986;2023-04-24T02:39:54;100781.53;;;11.91;66.31
58245;BME280;44550;43.864;25.986;2023-04-24T02:43:56;100774.38;;;11.41;68.81
58245;BME280;44550;43.864;25.986;2023-04-24T02:47:57;100777.88;;;11.44;68.98
58245;BME280;44550;43.864;25.986;2023-04-24T02:51:58;100781.47;;;11.71;67.78
58245;BME280;44550;43.864;25.986;2023-04-24T02:55:58;100788.56;;;12.03;66.60
58245;BME280;44550;43.864;25.986;2023-04-24T03:00:01;100795.50;;;11.85;67.83
58245;BME280;44550;43.864;25.986;2023-04-24T03:04:04;100789.34;;;11.82;67.00
58245;BME280;44550;43.864;25.986;2023-04-24T03:08:04;100784.75;;;11.22;69.21
58245;BME280;44550;43.864;25.986;2023-04-24T03:12:04;100785.56;;;11.08;70.43
58245;BME280;44550;43.864;25.986;2023-04-24T03:16:11;100790.00;;;11.19;70.26
58245;BME280;44550;43.864;25.986;2023-04-24T03:20:12;100784.84;;;11.45;69.76
58245;BME280;44550;43.864;25.986;2023-04-24T03:24:15;100791.16;;;11.89;68.29
58245;BME280;44550;43.864;25.986;2023-04-24T03:28:15;100794.69;;;12.06;66.56
58245;BME280;44550;43.864;25.986;2023-04-24T03:32:29;100792.75;;;11.55;68.17
58245;BME280;44550;43.864;25.986;2023-04-24T03:36:32;100789.31;;;11.63;68.46
58245;BME280;44550;43.864;25.986;2023-04-24T03:40:35;100771.00;;;11.72;68.25
58245;BME280;44550;43.864;25.986;2023-04-24T03:44:39;100786.84;;;12.29;66.77
58245;BME280;44550;43.864;25.986;2023-04-24T03:48:42;100782.47;;;12.65;65.17
58245;BME280;44550;43.864;25.986;2023-04-24T03:52:44;100791.16;;;12.81;64.09
58245;BME280;44550;43.864;25.986;2023-04-24T03:56:48;100794.69;;;12.83;63.85
58245;BME280;44550;43.864;25.986;2023-04-24T04:00:52;100805.19;;;12.32;64.96
58245;BME280;44550;43.864;25.986;2023-04-24T04:05:00;100802.50;;;11.88;67.00
58245;BME280;44550;43.864;25.986;2023-04-24T04:09:05;100802.56;;;12.78;66.05
58245;BME280;44550;43.864;25.986;2023-04-24T04:13:10;100799.56;;;13.89;62.23
58245;BME280;44550;43.864;25.986;2023-04-24T04:17:20;100809.31;;;14.90;59.40
58245;BME280;44550;43.864;25.986;2023-04-24T04:21:25;100810.69;;;15.98;54.77
58245;BME280;44550;43.864;25.986;2023-04-24T04:25:30;100806.22;;;16.59;52.11
58245;BME280;44550;43.864;25.986;2023-04-24T04:29:36;100812.19;;;16.72;49.73
58245;BME280;44550;43.864;25.986;2023-04-24T04:33:39;100806.31;;;17.06;50.18
58245;BME280;44550;43.864;25.986;2023-04-24T04:37:41;100804.22;;;17.23;49.20
58245;BME280;44550;43.864;25.986;2023-04-24T04:41:43;100801.53;;;17.68;47.50
58245;BME280;44550;43.864;25.986;2023-04-24T04:45:49;100803.97;;;17.79;46.46
58245;BME280;44550;43.864;25.986;2023-04-24T04:49:54;100802.16;;;17.39;47.42
58245;BME280;44550;43.864;25.986;2023-04-24T04:53:58;100802.88;;;17.01;47.90
58245;BME280;44550;43.864;25.986;2023-04-24T04:58:11;100804.06;;;16.29;50.53
58245;BME280;44550;43.864;25.986;2023-04-24T05:02:15;100807.50;;;14.96;55.37
58245;BME280;44550;43.864;25.986;2023-04-24T05:06:21;100803.66;;;14.32;57.84
58245;BME280;44550;43.864;25.986;2023-04-24T05:10:28;100802.19;;;13.90;59.60
58245;BME280;44550;43.864;25.986;2023-04-24T05:14:30;100813.34;;;14.27;59.78
58245;BME280;44550;43.864;25.986;2023-04-24T05:18:29;100811.91;;;15.76;55.55
58245;BME280;44550;43.864;25.986;2023-04-24T05:22:31;100817.03;;;17.43;49.27
58245;BME280;44550;43.864;25.986;2023-04-24T05:26:34;100809.44;;;18.10;47.34
58245;BME280;44550;43.864;25.986;2023-04-24T05:30:52;100803.78;;;18.25;46.44
58245;BME280;44550;43.864;25.986;2023-04-24T05:34:54;100800.59;;;17.29;48.75
58245;BME280;44550;43.864;25.986;2023-04-24T05:38:55;100798.41;;;16.53;51.50
58245;BME280;44550;43.864;25.986;2023-04-24T05:43:01;100797.97;;;16.27;53.10
58245;BME280;44550;43.864;25.986;2023-04-24T05:47:17;100797.09;;;15.61;55.59
58245;BME280;44550;43.864;25.986;2023-04-24T05:51:47;100791.75;;;15.66;55.93
58245;BME280;44550;43.864;25.986;2023-04-24T05:56:04;100788.25;;;15.68;55.45
58245;BME280;44550;43.864;25.986;2023-04-24T06:00:28;100781.31;;;15.60;56.40
58245;BME280;44550;43.864;25.986;2023-04-24T06:04:52;100782.09;;;15.69;55.99
58245;BME280;44550;43.864;25.986;2023-04-24T06:14:44;100789.41;;;16.65;53.84
58245;BME280;44550;43.864;25.986;2023-04-24T06:19:18;100789.59;;;16.54;54.81
58245;BME280;44550;43.864;25.986;2023-04-24T06:23:56;100787.13;;;16.43;55.39
58245;BME280;44550;43.864;25.986;2023-04-24T06:39:26;100793.13;;;17.04;53.69
58245;BME280;44550;43.864;25.986;2023-04-24T06:43:26;100794.94;;;17.88;53.25
58245;BME280;44550;43.864;25.986;2023-04-24T06:47:27;100793.72;;;18.40;50.19
58245;BME280;44550;43.864;25.986;2023-04-24T06:51:31;100797.44;;;18.68;49.55
58245;BME280;44550;43.864;25.986;2023-04-24T07:00:13;100807.47;;;18.55;48.67
58245;BME280;44550;43.864;25.986;2023-04-24T07:04:14;100803.34;;;18.44;48.73
58245;BME280;44550;43.864;25.986;2023-04-24T07:08:15;100804.13;;;18.47;47.91
58245;BME280;44550;43.864;25.986;2023-04-24T07:12:29;100798.09;;;19.42;46.04
58245;BME280;44550;43.864;25.986;2023-04-24T07:16:36;100794.69;;;19.37;45.40
58245;BME280;44550;43.864;25.986;2023-04-24T07:20:39;100793.16;;;19.30;45.80
58245;BME280;44550;43.864;25.986;2023-04-24T07:24:41;100795.66;;;19.67;45.02
58245;BME280;44550;43.864;25.986;2023-04-24T07:28:43;100807.16;;;19.02;46.57
58245;BME280;44550;43.864;25.986;2023-04-24T07:32:46;100802.00;;;18.97;46.07
58245;BME280;44550;43.864;25.986;2023-04-24T07:37:02;100791.09;;;19.08;46.02
58245;BME280;44550;43.864;25.986;2023-04-24T07:41:10;100798.84;;;19.16;46.17
58245;BME280;44550;43.864;25.986;2023-04-24T07:45:22;100792.00;;;19.69;45.58
58245;BME280;44550;43.864;25.986;2023-04-24T07:49:27;100785.47;;;19.81;44.44
58245;BME280;44550;43.864;25.986;2023-04-24T07:53:28;100784.38;;;20.16;43.43
58245;BME280;44550;43.864;25.986;2023-04-24T07:57:30;100786.41;;;20.08;43.92
58245;BME280;44550;43.864;25.986;2023-04-24T08:01:31;100790.16;;;20.01;43.52
58245;BME280;44550;43.864;25.986;2023-04-24T08:05:36;100786.94;;;19.91;44.04
58245;BME280;44550;43.864;25.986;2023-04-24T08:09:37;100783.31;;;20.49;43.48
58245;BME280;44550;43.864;25.986;2023-04-24T08:13:38;100787.00;;;20.71;41.14
58245;BME280;44550;43.864;25.986;2023-04-24T08:17:38;100773.59;;;21.24;42.47
58245;BME280;44550;43.864;25.986;2023-04-24T08:21:41;100777.69;;;20.84;42.08
58245;BME280;44550;43.864;25.986;2023-04-24T08:25:46;100766.81;;;21.41;41.54
58245;BME280;44550;43.864;25.986;2023-04-24T08:29:46;100769.06;;;21.51;41.22
58245;BME280;44550;43.864;25.986;2023-04-24T08:33:47;100771.28;;;21.40;42.91
58245;BME280;44550;43.864;25.986;2023-04-24T08:37:49;100767.22;;;21.05;43.38
58245;BME280;44550;43.864;25.986;2023-04-24T08:41:49;100766.19;;;20.84;44.08
58245;BME280;44550;43.864;25.986;2023-04-24T08:45:54;100763.56;;;20.82;42.97
58245;BME280;44550;43.864;25.986;2023-04-24T08:50:02;100766.34;;;20.54;43.75
58245;BME280;44550;43.864;25.986;2023-04-24T08:54:05;100752.22;;;21.02;42.98
58245;BME280;44550;43.864;25.986;2023-04-24T08:58:07;100753.81;;;21.08;43.80
58245;BME280;44550;43.864;25.986;2023-04-24T09:02:09;100744.25;;;21.02;44.24
58245;BME280;44550;43.864;25.986;2023-04-24T09:06:10;100740.03;;;20.97;45.59
58245;BME280;44550;43.864;25.986;2023-04-24T09:10:15;100734.22;;;21.10;44.46
58245;BME280;44550;43.864;25.986;2023-04-24T09:14:19;100734.44;;;20.79;45.92
58245;BME280;44550;43.864;25.986;2023-04-24T09:18:23;100729.22;;;21.01;45.44
58245;BME280;44550;43.864;25.986;2023-04-24T09:22:28;100729.56;;;20.92;45.29
58245;BME280;44550;43.864;25.986;2023-04-24T09:26:36;100723.06;;;21.01;45.63
58245;BME280;44550;43.864;25.986;2023-04-24T09:30:36;100716.66;;;21.53;43.17
58245;BME280;44550;43.864;25.986;2023-04-24T09:34:37;100712.28;;;21.52;42.52
58245;BME280;44550;43.864;25.986;2023-04-24T09:38:41;100713.38;;;21.69;42.71
58245;BME280;44550;43.864;25.986;2023-04-24T09:42:51;100711.03;;;22.05;41.27
58245;BME280;44550;43.864;25.986;2023-04-24T09:46:53;100705.13;;;22.20;40.93
58245;BME280;44550;43.864;25.986;2023-04-24T09:50:54;100701.50;;;21.77;42.30
58245;BME280;44550;43.864;25.986;2023-04-24T09:54:55;100700.91;;;21.71;42.23
58245;BME280;44550;43.864;25.986;2023-04-24T09:59:00;100696.28;;;21.76;42.20
58245;BME280;44550;43.864;25.986;2023-04-24T10:03:04;100699.84;;;21.97;40.88
58245;BME280;44550;43.864;25.986;2023-04-24T10:07:09;100685.81;;;22.15;40.40
58245;BME280;44550;43.864;25.986;2023-04-24T10:11:11;100686.03;;;22.09;39.72
58245;BME280;44550;43.864;25.986;2023-04-24T10:15:14;100683.94;;;21.95;40.79
58245;BME280;44550;43.864;25.986;2023-04-24T10:19:20;100682.00;;;22.21;40.47
58245;BME280;44550;43.864;25.986;2023-04-24T10:23:22;100683.63;;;22.03;40.44
58245;BME280;44550;43.864;25.986;2023-04-24T10:27:23;100676.38;;;21.85;39.39
58245;BME280;44550;43.864;25.986;2023-04-24T10:31:28;100665.91;;;22.02;40.34
58245;BME280;44550;43.864;25.986;2023-04-24T10:35:32;100665.16;;;22.20;39.07
58245;BME280;44550;43.864;25.986;2023-04-24T10:39:40;100666.34;;;21.91;37.95
58245;BME280;44550;43.864;25.986;2023-04-24T10:44:03;100661.97;;;22.11;37.72
58245;BME280;44550;43.864;25.986;2023-04-24T10:48:25;100658.88;;;22.21;36.54
58245;BME280;44550;43.864;25.986;2023-04-24T10:56:55;100658.13;;;22.40;35.08
58245;BME280;44550;43.864;25.986;2023-04-24T11:01:28;100653.59;;;22.42;33.85
58245;BME280;44550;43.864;25.986;2023-04-24T11:05:50;100645.94;;;22.73;34.91
58245;BME280;44550;43.864;25.986;2023-04-24T11:09:56;100644.16;;;22.74;34.37
58245;BME280;44550;43.864;25.986;2023-04-24T11:14:06;100640.53;;;22.95;34.41
58245;BME280;44550;43.864;25.986;2023-04-24T11:18:11;100637.56;;;23.58;33.44
58245;BME280;44550;43.864;25.986;2023-04-24T11:22:13;100633.41;;;22.96;33.89
58245;BME280;44550;43.864;25.986;2023-04-24T11:26:17;100630.47;;;23.76;33.21
58245;BME280;44550;43.864;25.986;2023-04-24T11:30:18;100627.75;;;23.95;32.52
58245;BME280;44550;43.864;25.986;2023-04-24T11:34:21;100616.88;;;24.33;31.86
58245;BME280;44550;43.864;25.986;2023-04-24T11:38:22;100616.50;;;23.88;32.45
58245;BME280;44550;43.864;25.986;2023-04-24T11:42:23;100612.97;;;24.23;32.12
58245;BME280;44550;43.864;25.986;2023-04-24T11:46:29;100611.94;;;24.25;32.60
58245;BME280;44550;43.864;25.986;2023-04-24T11:50:32;100611.78;;;23.76;33.28
58245;BME280;44550;43.864;25.986;2023-04-24T11:54:33;100600.31;;;23.38;34.09
58245;BME280;44550;43.864;25.986;2023-04-24T11:58:34;100592.22;;;23.39;33.55
58245;BME280;44550;43.864;25.986;2023-04-24T12:02:35;100591.88;;;24.01;33.85
58245;BME280;44550;43.864;25.986;2023-04-24T12:06:40;100594.19;;;23.89;33.62
58245;BME280;44550;43.864;25.986;2023-04-24T12:11:03;100587.75;;;24.28;33.79
58245;BME280;44550;43.864;25.986;2023-04-24T12:15:06;100583.06;;;23.99;34.31
58245;BME280;44550;43.864;25.986;2023-04-24T12:19:08;100580.56;;;23.59;34.26
58245;BME280;44550;43.864;25.986;2023-04-24T12:23:12;100567.97;;;23.44;34.28
58245;BME280;44550;43.864;25.986;2023-04-24T12:27:19;100555.16;;;23.70;34.15
58245;BME280;44550;43.864;25.986;2023-04-24T12:31:23;100554.94;;;23.91;34.40
58245;BME280;44550;43.864;25.986;2023-04-24T12:35:27;100550.03;;;23.65;35.38
58245;BME280;44550;43.864;25.986;2023-04-24T12:39:31;100542.59;;;23.72;35.96
58245;BME280;44550;43.864;25.986;2023-04-24T12:43:32;100546.59;;;23.80;35.35
58245;BME280;44550;43.864;25.986;2023-04-24T12:47:33;100539.91;;;24.06;35.03
58245;BME280;44550;43.864;25.986;2023-04-24T12:51:34;100534.47;;;23.38;35.60
58245;BME280;44550;43.864;25.986;2023-04-24T12:55:36;100522.53;;;23.63;35.54
58245;BME280;44550;43.864;25.986;2023-04-24T12:59:36;100526.16;;;24.14;35.72
58245;BME280;44550;43.864;25.986;2023-04-24T13:03:35;100521.47;;;24.35;35.24
58245;BME280;44550;43.864;25.986;2023-04-24T13:07:37;100513.88;;;24.76;34.09
58245;BME280;44550;43.864;25.986;2023-04-24T13:11:39;100512.84;;;25.11;33.71
58245;BME280;44550;43.864;25.986;2023-04-24T13:15:40;100512.16;;;25.23;34.60
58245;BME280;44550;43.864;25.986;2023-04-24T13:19:45;100505.25;;;24.55;36.08
58245;BME280;44550;43.864;25.986;2023-04-24T13:23:50;100501.78;;;24.53;35.14
58245;BME280;44550;43.864;25.986;2023-04-24T13:27:53;100500.22;;;24.16;36.51
58245;BME280;44550;43.864;25.986;2023-04-24T13:31:54;100490.84;;;25.05;34.93
58245;BME280;44550;43.864;25.986;2023-04-24T13:35:54;100486.59;;;25.33;34.71
58245;BME280;44550;43.864;25.986;2023-04-24T13:39:55;100492.22;;;25.28;34.26
58245;BME280;44550;43.864;25.986;2023-04-24T13:43:57;100490.25;;;25.16;34.72
58245;BME280;44550;43.864;25.986;2023-04-24T13:47:57;100483.31;;;25.28;34.59
58245;BME280;44550;43.864;25.986;2023-04-24T13:51:59;100479.56;;;24.84;34.38
58245;BME280;44550;43.864;25.986;2023-04-24T13:56:03;100483.34;;;24.49;34.32
58245;BME280;44550;43.864;25.986;2023-04-24T14:00:10;100476.00;;;25.16;33.04
58245;BME280;44550;43.864;25.986;2023-04-24T14:04:10;100468.81;;;25.32;33.02
58245;BME280;44550;43.864;25.986;2023-04-24T14:08:12;100465.56;;;24.95;33.40
58245;BME280;44550;43.864;25.986;2023-04-24T14:12:14;100459.31;;;24.31;34.61
58245;BME280;44550;43.864;25.986;2023-04-24T14:16:19;100463.66;;;24.01;34.64
58245;BME280;44550;43.864;25.986;2023-04-24T14:20:19;100460.63;;;23.74;35.17
58245;BME280;44550;43.864;25.986;2023-04-24T14:24:25;100456.22;;;23.55;35.66
58245;BME280;44550;43.864;25.986;2023-04-24T14:28:27;100457.38;;;24.02;35.24
58245;BME280;44550;43.864;25.986;2023-04-24T14:32:37;100452.72;;;24.05;35.05
58245;BME280;44550;43.864;25.986;2023-04-24T14:36:43;100447.25;;;24.24;34.60
58245;BME280;44550;43.864;25.986;2023-04-24T14:41:26;100449.03;;;24.24;34.82
58245;BME280;44550;43.864;25.986;2023-04-24T14:45:39;100439.41;;;24.21;35.84
58245;BME280;44550;43.864;25.986;2023-04-24T14:49:41;100448.06;;;24.58;35.57
58245;BME280;44550;43.864;25.986;2023-04-24T14:53:44;100444.41;;;24.27;35.83
58245;BME280;44550;43.864;25.986;2023-04-24T14:57:48;100443.44;;;24.28;36.11
58245;BME280;44550;43.864;25.986;2023-04-24T15:01:48;100442.59;;;24.28;35.88
58245;BME280;44550;43.864;25.986;2023-04-24T15:06:12;100435.56;;;24.09;36.36
58245;BME280;44550;43.864;25.986;2023-04-24T15:10:26;100425.84;;;23.75;37.22
58245;BME280;44550;43.864;25.986;2023-04-24T15:14:26;100429.59;;;23.88;37.06
58245;BME280;44550;43.864;25.986;2023-04-24T15:18:26;100429.47;;;24.23;37.22
58245;BME280;44550;43.864;25.986;2023-04-24T15:22:29;100413.44;;;24.23;36.78
58245;BME280;44550;43.864;25.986;2023-04-24T15:26:29;100420.41;;;23.94;37.13
58245;BME280;44550;43.864;25.986;2023-04-24T15:30:28;100414.03;;;23.79;37.54
58245;BME280;44550;43.864;25.986;2023-04-24T15:34:28;100408.69;;;24.12;37.41
58245;BME280;44550;43.864;25.986;2023-04-24T15:38:31;100408.28;;;24.36;36.87
58245;BME280;44550;43.864;25.986;2023-04-24T15:42:31;100401.22;;;24.35;36.39
58245;BME280;44550;43.864;25.986;2023-04-24T15:46:31;100391.19;;;24.23;37.19
58245;BME280;44550;43.864;25.986;2023-04-24T15:50:35;100379.22;;;23.98;37.67
58245;BME280;44550;43.864;25.986;2023-04-24T15:54:38;100384.22;;;24.20;37.71
58245;BME280;44550;43.864;25.986;2023-04-24T15:58:38;100382.50;;;24.19;37.50
58245;BME280;44550;43.864;25.986;2023-04-24T16:02:38;100380.44;;;24.24;37.89
58245;BME280;44550;43.864;25.986;2023-04-24T16:06:38;100368.44;;;24.15;37.33
58245;BME280;44550;43.864;25.986;2023-04-24T16:10:40;100371.19;;;24.30;37.66
58245;BME280;44550;43.864;25.986;2023-04-24T16:14:43;100365.81;;;24.47;37.64
58245;BME280;44550;43.864;25.986;2023-04-24T16:18:42;100358.66;;;24.48;36.98
58245;BME280;44550;43.864;25.986;2023-04-24T16:22:50;100367.50;;;24.32;37.42
58245;BME280;44550;43.864;25.986;2023-04-24T16:26:54;100368.44;;;24.15;37.50
58245;BME280;44550;43.864;25.986;2023-04-24T16:30:54;100364.66;;;24.20;37.97
58245;BME280;44550;43.864;25.986;2023-04-24T16:34:53;100365.09;;;24.12;38.08
58245;BME280;44550;43.864;25.986;2023-04-24T16:38:53;100359.81;;;24.10;38.61
58245;BME280;44550;43.864;25.986;2023-04-24T16:42:56;100364.31;;;23.94;39.24
58245;BME280;44550;43.864;25.986;2023-04-24T16:46:56;100359.00;;;23.77;40.06
58245;BME280;44550;43.864;25.986;2023-04-24T16:50:56;100358.41;;;23.54;41.13
58245;BME280;44550;43.864;25.986;2023-04-24T16:54:56;100351.38;;;23.36;41.45
58245;BME280;44550;43.864;25.986;2023-04-24T16:58:58;100353.09;;;23.19;42.16
58245;BME280;44550;43.864;25.986;2023-04-24T17:02:58;100357.09;;;22.93;42.29
58245;BME280;44550;43.864;25.986;2023-04-24T17:06:58;100352.84;;;22.89;43.73
58245;BME280;44550;43.864;25.986;2023-04-24T17:10:59;100360.28;;;22.83;43.52
58245;BME280;44550;43.864;25.986;2023-04-24T17:15:00;100357.06;;;22.76;43.58
58245;BME280;44550;43.864;25.986;2023-04-24T17:19:01;100366.66;;;22.61;44.63
58245;BME280;44550;43.864;25.986;2023-04-24T17:23:02;100371.47;;;22.17;46.69
58245;BME280;44550;43.864;25.986;2023-04-24T17:27:06;100374.47;;;21.29;46.47
58245;BME280;44550;43.864;25.986;2023-04-24T17:31:17;100370.56;;;20.75;47.53
58245;BME280;44550;43.864;25.986;2023-04-24T17:35:26;100379.31;;;20.56;49.83
58245;BME280;44550;43.864;25.986;2023-04-24T17:39:30;100379.84;;;20.19;51.21
58245;BME280;44550;43.864;25.986;2023-04-24T17:43:31;100385.63;;;20.30;51.14
58245;BME280;44550;43.864;25.986;2023-04-24T17:47:34;100385.16;;;20.19;52.04
58245;BME280;44550;43.864;25.986;2023-04-24T17:51:35;100382.75;;;19.89;53.80
58245;BME280;44550;43.864;25.986;2023-04-24T17:55:40;100376.63;;;19.62;55.72
58245;BME280;44550;43.864;25.986;2023-04-24T17:59:43;100381.91;;;19.39;55.84
58245;BME280;44550;43.864;25.986;2023-04-24T18:03:57;100367.66;;;19.16;56.49
58245;BME280;44550;43.864;25.986;2023-04-24T18:07:58;100387.41;;;19.08;56.76
58245;BME280;44550;43.864;25.986;2023-04-24T18:11:58;100393.94;;;18.97;57.89
58245;BME280;44550;43.864;25.986;2023-04-24T18:16:00;100405.53;;;18.93;58.07
58245;BME280;44550;43.864;25.986;2023-04-24T18:20:03;100403.16;;;18.86;58.30
58245;BME280;44550;43.864;25.986;2023-04-24T18:24:03;100403.25;;;18.83;58.62
58245;BME280;44550;43.864;25.986;2023-04-24T18:28:04;100417.25;;;18.86;59.24
58245;BME280;44550;43.864;25.986;2023-04-24T18:32:05;100423.84;;;18.73;60.65
58245;BME280;44550;43.864;25.986;2023-04-24T18:36:09;100430.88;;;18.74;60.35
58245;BME280;44550;43.864;25.986;2023-04-24T18:40:13;100434.94;;;18.56;60.40
58245;BME280;44550;43.864;25.986;2023-04-24T18:44:16;100437.09;;;18.43;63.95
58245;BME280;44550;43.864;25.986;2023-04-24T18:48:18;100431.00;;;18.41;64.08
58245;BME280;44550;43.864;25.986;2023-04-24T18:52:22;100421.19;;;18.45;63.07
58245;BME280;44550;43.864;25.986;2023-04-24T18:56:22;100417.97;;;18.35;62.76
58245;BME280;44550;43.864;25.986;2023-04-24T19:00:23;100418.63;;;18.42;62.67
58245;BME280;44550;43.864;25.986;2023-04-24T19:04:23;100426.25;;;18.52;62.27
58245;BME280;44550;43.864;25.986;2023-04-24T19:08:27;100426.72;;;18.65;61.41
58245;BME280;44550;43.864;25.986;2023-04-24T19:12:30;100419.72;;;18.64;61.54
58245;BME280;44550;43.864;25.986;2023-04-24T19:16:34;100410.25;;;18.55;61.85
58245;BME280;44550;43.864;25.986;2023-04-24T19:20:40;100407.31;;;18.37;63.24
58245;BME280;44550;43.864;25.986;2023-04-24T19:24:42;100405.53;;;18.37;63.37
58245;BME280;44550;43.864;25.986;2023-04-24T19:28:44;100405.22;;;18.48;63.62
58245;BME280;44550;43.864;25.986;2023-04-24T19:32:44;100401.81;;;18.44;63.43
58245;BME280;44550;43.864;25.986;2023-04-24T19:36:44;100405.50;;;18.39;64.49
58245;BME280;44550;43.864;25.986;2023-04-24T19:40:47;100413.53;;;18.06;66.21
58245;BME280;44550;43.864;25.986;2023-04-24T19:44:50;100410.59;;;17.86;68.00
58245;BME280;44550;43.864;25.986;2023-04-24T19:48:51;100409.63;;;17.55;69.67
58245;BME280;44550;43.864;25.986;2023-04-24T19:52:54;100420.16;;;17.57;70.46
58245;BME280;44550;43.864;25.986;2023-04-24T19:56:57;100424.03;;;17.44;71.41
58245;BME280;44550;43.864;25.986;2023-04-24T20:01:02;100417.56;;;17.21;73.06
58245;BME280;44550;43.864;25.986;2023-04-24T20:05:08;100415.97;;;17.16;73.62
58245;BME280;44550;43.864;25.986;2023-04-24T20:09:18;100421.25;;;17.16;73.52
58245;BME280;44550;43.864;25.986;2023-04-24T20:13:21;100416.28;;;17.02;73.74
58245;BME280;44550;43.864;25.986;2023-04-24T20:17:47;100417.44;;;16.91;73.84
58245;BME280;44550;43.864;25.986;2023-04-24T20:22:07;100430.41;;;17.02;73.42
58245;BME280;44550;43.864;25.986;2023-04-24T20:26:12;100455.13;;;17.34;73.64
58245;BME280;44550;43.864;25.986;2023-04-24T20:30:16;100444.31;;;17.77;71.61
58245;BME280;44550;43.864;25.986;2023-04-24T20:34:18;100452.75;;;17.92;71.67
58245;BME280;44550;43.864;25.986;2023-04-24T20:38:21;100450.00;;;17.95;71.12
58245;BME280;44550;43.864;25.986;2023-04-24T20:42:25;100453.63;;;17.91;70.68
58245;BME280;44550;43.864;25.986;2023-04-24T20:46:28;100448.72;;;17.77;70.94
58245;BME280;44550;43.864;25.986;2023-04-24T20:50:35;100445.34;;;17.70;70.17
58245;BME280;44550;43.864;25.986;2023-04-24T20:54:46;100444.28;;;17.79;68.07
58245;BME280;44550;43.864;25.986;2023-04-24T20:58:54;100437.06;;;17.84;67.11
58245;BME280;44550;43.864;25.986;2023-04-24T21:02:59;100438.50;;;17.63;67.13
58245;BME280;44550;43.864;25.986;2023-04-24T21:07:12;100428.25;;;17.51;67.39
58245;BME280;44550;43.864;25.986;2023-04-24T21:11:19;100424.97;;;17.43;68.70
58245;BME280;44550;43.864;25.986;2023-04-24T21:15:27;100422.28;;;17.10;72.73
58245;BME280;44550;43.864;25.986;2023-04-24T21:19:46;100407.91;;;17.20;73.63
58245;BME280;44550;43.864;25.986;2023-04-24T21:24:18;100413.06;;;17.25;74.61
58245;BME280;44550;43.864;25.986;2023-04-24T21:28:37;100411.06;;;17.34;75.58